x

Buoy F01 - West Penobscot Bay (44033) Wave Buoy

5:04 - Wed 30th Jul 2014 All times are EDT. -4 hours from GMT.

  • Sig Wave height 1.6ft
  • Peak Period 8s
  • Wind
    11mph
  • Sea Temp 60°f
  • Luft Temp 59°f
  • Sea Pressure 1014.7mb
  • Buoy F01 - West Penobscot Bay
  • Buoy F01 - West Penobscot Bay

More Historic Weather Station data

Upgrade to MSW Pro to gain access to the past 30 days of data for over 8000 Wavebouys and Weather Stations around the globe.

Join Pro

Comparision Forecast

View Surf forecast
   
Mi 07/30 5:04 1.6ft 8s 11
mph
1014.7mb 60f 59f
4:04 2.5ft 8s 11 13 mph 1014.6mb 60f 59f
3:04 2.5ft 8s 11 13 mph 1014.8mb 58f 59f
2:04 2ft 8s 11
mph
1014.8mb 59f 60f
1:04 2.5ft 8s 9 11 mph 1015.2mb 59f 60f
12:04 2.5ft 8s 4
mph
1015.5mb 58f 60f
11:04 2.5ft 8s 9
mph
1015.7mb 60f 60f
10:04 2.5ft 8s 7 9 mph 1016.1mb 61f 60f
9:04 2.5ft 8s 7 9 mph 1015.7mb 61f 60f
8:04 2.5ft 8s 9 11 mph 1015.6mb 62f 58f
7:04 2.5ft 8s 7
mph
1015.3mb 62f 61f
6:04 2.5ft 8s 7
mph
1014.8mb 60f 61f
5:04 2ft 11s 2 4 mph 1014.6mb 61f 60f
4:04 2.5ft 8s 2
mph
1013.7mb 60f 60f
3:04 2.5ft 8s 2 4 mph 1013.4mb 60f 59f
2:04 2.5ft 8s 4 7 mph 1013.5mb 59f 59f
1:04 2.5ft 8s 7
mph
1013.4mb 59f 59f
12:04 2.5ft 8s 4 7 mph 1012.7mb 59f 59f
Di 07/29 11:04 2.5ft 8s 4 7 mph 1012.6mb 59f 60f
10:04 2.5ft 8s 2 4 mph 1012.4mb 58f 60f
9:04 2.5ft 8s 4
mph
1012mb 59f 61f
8:04 2.5ft 11s 9
mph
1011.6mb 60f 61f
7:04 2.5ft 8s 7 9 mph 1010.9mb 60f 62f
6:04 2.5ft 8s 9 13 mph 1010.5mb 64f 64f
5:04 3.5ft 8s 11 13 mph 1009.7mb 62f 63f
4:04 2.5ft 6s 13
mph
1008.8mb 59f 62f
3:04 3.5ft 8s 11 13 mph 1008mb 58f 61f
2:04 3.5ft 8s 4 7 mph 1007.1mb 58f 67f
1:04 3.5ft 8s 2 4 mph 1006.6mb 58f 65f
12:04 3ft 6s 4
mph
1005.9mb 59f 67f
11:04 3ft 6s 4 7 mph 1005.4mb 59f 65f
10:04 3.5ft 6s 7 9 mph 1004.7mb 59f 64f
9:04 3ft 6s 7 9 mph 1003.7mb 59f 64f
8:04 2.5ft 6s 7 9 mph 1002.8mb 59f 63f
7:04 2.5ft 6s 9
mph
1001.5mb 58f 60f
6:04 3ft 6s 7
mph
1001mb 59f 60f
5:04 3ft 8s 7 9 mph 1000.3mb 56f 59f
4:04 2.5ft 6s 9
mph
999.3mb 55f 59f
3:04 3.5ft 6s 9
mph
998.4mb 55f 57f
2:04 3.5ft 6s 9 11 mph 997.8mb 55f 59f
1:04 3.5ft 6s 11 16 mph 997.3mb 55f 59f
12:04 2.5ft 6s 11
mph
997.3mb 55f 59f
Mo 07/28 11:04 2.5ft 5s 7
mph
997.3mb 55f 58f
10:04 2.5ft 5s 13
mph
997.3mb 55f 60f
9:04 2.5ft 5s 13 16 mph 997.5mb 55f 60f
8:04 3ft 5s 11 13 mph 998mb 55f 59f
7:04 3ft 5s 11 13 mph 998.5mb 55f 60f
6:04 3ft 5s 13 16 mph 998.7mb 56f 59f
5:04 3ft 5s 13 16 mph 998.9mb 55f 60f
4:04 2.5ft 4s 13 16 mph 999.5mb 55f 61f
3:04 2ft 5s 16 22 mph 999.7mb 55f 60f
2:04 1.3ft 3s 9 13 mph 1000.6mb 55f 60f
1:04 2ft 5s 13 18 mph 1001.8mb 55f 61f
12:04 1.6ft 6s 13 16 mph 1002.6mb 56f 59f
11:04 1.6ft 6s 4 7 mph 1002.9mb 56f 59f
10:04 2ft 5s 9
mph
1003.7mb 56f 58f
9:04 2ft 5s 9 11 mph 1004.2mb 56f 59f
8:04 2ft 5s 7
mph
1003.9mb 56f 59f
7:04 2ft 5s 7 9 mph 1004.4mb 56f 59f
6:04 1.6ft 5s 9
mph
1004.3mb 56f 59f
5:04 2ft 5s 7
mph
1004mb 56f 59f
12:04 2.5ft 5s 7 9 mph 1004.3mb 55f 59f
So 07/27 11:04 2.5ft 5s 11
mph
1004.7mb 56f 59f
10:04 3ft 5s 11 13 mph 1005mb 56f 59f
9:04 2.5ft 4s 11 13 mph 1005.6mb 56f 61f
8:04 3ft 5s 9 11 mph 1005.6mb 56f 60f
7:04 2.5ft 5s 7 9 mph 1006.1mb 56f 59f
6:04 2.5ft 5s 11 13 mph 1006.1mb 56f 60f
5:04 2.5ft 4s 13 16 mph 1006.4mb 57f 61f
4:04 2.5ft 5s 16 18 mph 1006.7mb 58f 61f
3:04 2.5ft 5s 16 18 mph 1007mb 58f 61f
2:04 2.5ft 8s 13 16 mph 1007.2mb 58f 61f
1:04 2.5ft 5s 13 16 mph 1007.5mb 58f 62f
12:04 2ft 8s 13
mph
1007.7mb 59f 62f
11:04 2ft 8s 9 11 mph 1008mb 60f 61f
10:04 1.6ft 8s 7 9 mph 1008.8mb 59f 60f
9:04 2ft 5s 7
mph
1008.9mb 58f 60f
8:04 2ft 5s 4 7 mph 1009.2mb 58f 60f